1P1

Plymouth Municipal Airport

Plymouth, New Hampshire, USA
METAR K1P1 221955Z AUTO 14005KT 10SM OVC015 20/17 A3013 RMK AO2 T01950169
Observed Flight Rules
Jul-22 @ 19:55 UTC (9 minutes ago) Marginal Visual Flight Rules
Wind Visibility Clouds
140° at 5 knots 10 miles
  • Overcast at 1,500' AGL
Temperatures Readings
Current 20°C / 68°F
Dewpoint 17°C / 63°F
Humidity 83%
Altimeter 30.13" Hg
Pressure 1020 hPa
Elevation 154
METAR K1P1 221955Z AUTO 14005KT 10SM OVC015 20/17 A3013 RMK AO2 T01950169
Observed Flight Rules
Jul-22 @ 19:55 UTC
(9 minutes ago)
MVFR
Wind Visibility
140° at 5 knots 10 miles
Clouds
  • Overcast at 1,500' AGL
Temperature Dewpoint
20°C / 68°F 17°C / 63°F
Humidity Altimeter Pressure
83% 30.13" Hg 1020 hPa